This is the latest recevied weather packets stored in our database for station/object KG4AGD. If no packets are shown the sender has not sent any weather packets the latest 10 day(s).
| Time | Temp. | Humidity | Pressure | Rain* | Wind** | Luminosity | Snow |
|---|---|---|---|---|---|---|---|
| 1777874184 | 11.67° C | 82% | 1018.9 hPa | 0 mm | - | - | - |
| 1777873882 | 11.67° C | 82% | 1018.9 hPa | 0 mm | - | - | - |
| 1777873580 | 11.67° C | 81% | 1018.9 hPa | 0 mm | - | - | - |
| 1777873277 | 11.67° C | 81% | 1018.9 hPa | 0 mm | - | - | - |
| 1777872975 | 11.67° C | 82% | 1019.3 hPa | 0 mm | - | - | - |
| 1777872673 | 11.11° C | 82% | 1019.3 hPa | 0 mm | - | - | - |
| 1777872370 | 11.11° C | 81% | 1019.3 hPa | 0 mm | - | - | - |
| 1777872068 | 11.11° C | 81% | 1019.3 hPa | 0 mm | - | - | - |
| 1777871764 | 10.56° C | 82% | 1019.3 hPa | 0 mm | - | - | - |
| 1777871461 | 10° C | 86% | 1019.3 hPa | 0 mm | - | - | - |
| 1777871159 | 8.33° C | 92% | 1019.3 hPa | 0 mm | - | - | - |
| 1777870857 | 7.22° C | 98% | 1019.3 hPa | 0 mm | - | - | - |
| 1777870555 | 7.22° C | 98% | 1019.3 hPa | 0 mm | - | - | - |
| 1777870253 | 6.67° C | 98% | 1019.3 hPa | 0 mm | - | - | - |
| 1777869950 | 6.67° C | 98% | 1019.3 hPa | 0 mm | - | - | - |
| 1777869648 | 7.22° C | 98% | 1019.3 hPa | 0 mm | - | - | - |
| 1777869346 | 7.22° C | 98% | 1019.3 hPa | 0 mm | - | - | - |
| 1777869044 | 7.22° C | 98% | 1019.3 hPa | 0 mm | - | - | - |
| 1777868741 | 7.22° C | 98% | 1019.3 hPa | 0 mm | - | - | - |
| 1777868439 | 7.22° C | 98% | 1019.3 hPa | 0 mm | - | - | - |
| 1777868137 | 7.22° C | 98% | 1018.9 hPa | 0 mm | - | - | - |
| 1777867835 | 7.22° C | 98% | 1018.9 hPa | 0 mm | - | - | - |
| 1777867533 | 7.22° C | 98% | 1018.9 hPa | 0 mm | - | - | - |
| 1777867231 | 7.22° C | 98% | 1018.9 hPa | 0 mm | - | - | - |
| 1777866928 | 7.22° C | 96% | 1018.9 hPa | 0.25 mm | - | - | - |
* Rain since midnight (hover to see other rain measurements)
** Current wind speed in m/s (hover to see current wind gust speed)